sensor_id;sensor_type;location;lat;lon;timestamp;P1;durP1;ratioP1;P2;durP2;ratioP2
20697;SDS011;10508;50.956;4.640;2022-12-13T00:01:13;35.92;;;12.05;;
20697;SDS011;10508;50.956;4.640;2022-12-13T00:03:40;39.55;;;13.43;;
20697;SDS011;10508;50.956;4.640;2022-12-13T00:06:07;41.58;;;13.45;;
20697;SDS011;10508;50.956;4.640;2022-12-13T00:08:34;37.10;;;12.70;;
20697;SDS011;10508;50.956;4.640;2022-12-13T00:11:00;35.65;;;12.40;;
20697;SDS011;10508;50.956;4.640;2022-12-13T00:13:27;29.40;;;12.80;;
20697;SDS011;10508;50.956;4.640;2022-12-13T00:16:00;34.08;;;12.20;;
20697;SDS011;10508;50.956;4.640;2022-12-13T00:18:28;41.45;;;12.45;;
20697;SDS011;10508;50.956;4.640;2022-12-13T00:20:54;29.38;;;12.00;;
20697;SDS011;10508;50.956;4.640;2022-12-13T00:23:19;32.30;;;12.32;;
20697;SDS011;10508;50.956;4.640;2022-12-13T00:25:45;36.13;;;13.50;;
20697;SDS011;10508;50.956;4.640;2022-12-13T00:28:11;35.97;;;13.85;;
20697;SDS011;10508;50.956;4.640;2022-12-13T00:30:37;39.88;;;13.32;;
20697;SDS011;10508;50.956;4.640;2022-12-13T00:33:04;42.45;;;13.57;;
20697;SDS011;10508;50.956;4.640;2022-12-13T00:35:31;60.15;;;21.30;;
20697;SDS011;10508;50.956;4.640;2022-12-13T00:38:05;55.20;;;19.55;;
20697;SDS011;10508;50.956;4.640;2022-12-13T00:40:33;58.20;;;20.60;;
20697;SDS011;10508;50.956;4.640;2022-12-13T00:42:59;57.50;;;17.88;;
20697;SDS011;10508;50.956;4.640;2022-12-13T00:45:24;40.65;;;15.73;;
20697;SDS011;10508;50.956;4.640;2022-12-13T00:47:50;51.70;;;17.52;;
20697;SDS011;10508;50.956;4.640;2022-12-13T00:50:16;49.60;;;16.02;;
20697;SDS011;10508;50.956;4.640;2022-12-13T00:52:41;36.03;;;13.95;;
20697;SDS011;10508;50.956;4.640;2022-12-13T00:55:07;41.53;;;14.38;;
20697;SDS011;10508;50.956;4.640;2022-12-13T00:57:33;32.35;;;12.27;;
20697;SDS011;10508;50.956;4.640;2022-12-13T00:59:59;33.85;;;14.10;;
20697;SDS011;10508;50.956;4.640;2022-12-13T01:02:25;32.70;;;14.25;;
20697;SDS011;10508;50.956;4.640;2022-12-13T01:04:50;40.00;;;13.07;;
20697;SDS011;10508;50.956;4.640;2022-12-13T01:07:16;32.25;;;11.80;;
20697;SDS011;10508;50.956;4.640;2022-12-13T01:09:42;39.47;;;13.73;;
20697;SDS011;10508;50.956;4.640;2022-12-13T01:12:08;41.90;;;15.60;;
20697;SDS011;10508;50.956;4.640;2022-12-13T01:14:36;38.03;;;13.27;;
20697;SDS011;10508;50.956;4.640;2022-12-13T01:17:02;32.67;;;12.20;;
20697;SDS011;10508;50.956;4.640;2022-12-13T01:19:28;32.72;;;12.35;;
20697;SDS011;10508;50.956;4.640;2022-12-13T01:21:55;31.92;;;12.27;;
20697;SDS011;10508;50.956;4.640;2022-12-13T01:24:21;33.13;;;12.45;;
20697;SDS011;10508;50.956;4.640;2022-12-13T01:26:51;29.55;;;12.45;;
20697;SDS011;10508;50.956;4.640;2022-12-13T01:29:18;41.75;;;14.48;;
20697;SDS011;10508;50.956;4.640;2022-12-13T01:31:45;39.35;;;12.93;;
20697;SDS011;10508;50.956;4.640;2022-12-13T01:34:11;31.70;;;12.82;;
20697;SDS011;10508;50.956;4.640;2022-12-13T01:36:38;31.48;;;12.20;;
20697;SDS011;10508;50.956;4.640;2022-12-13T01:39:06;33.42;;;11.73;;
20697;SDS011;10508;50.956;4.640;2022-12-13T01:41:33;39.08;;;13.45;;
20697;SDS011;10508;50.956;4.640;2022-12-13T01:44:00;33.97;;;11.45;;
20697;SDS011;10508;50.956;4.640;2022-12-13T01:46:28;28.48;;;12.85;;
20697;SDS011;10508;50.956;4.640;2022-12-13T01:48:57;26.60;;;10.05;;
20697;SDS011;10508;50.956;4.640;2022-12-13T01:51:46;31.13;;;11.35;;
20697;SDS011;10508;50.956;4.640;2022-12-13T01:54:16;29.83;;;11.18;;
20697;SDS011;10508;50.956;4.640;2022-12-13T01:56:56;36.30;;;11.88;;
20697;SDS011;10508;50.956;4.640;2022-12-13T01:59:22;29.67;;;10.27;;
20697;SDS011;10508;50.956;4.640;2022-12-13T02:01:48;22.95;;;10.30;;
20697;SDS011;10508;50.956;4.640;2022-12-13T02:04:16;26.23;;;10.57;;
20697;SDS011;10508;50.956;4.640;2022-12-13T02:06:53;24.05;;;9.23;;
20697;SDS011;10508;50.956;4.640;2022-12-13T02:09:21;31.38;;;10.43;;
20697;SDS011;10508;50.956;4.640;2022-12-13T02:11:47;30.70;;;11.43;;
20697;SDS011;10508;50.956;4.640;2022-12-13T02:14:15;40.20;;;11.85;;
20697;SDS011;10508;50.956;4.640;2022-12-13T02:30:32;25.58;;;8.77;;
20697;SDS011;10508;50.956;4.640;2022-12-13T02:33:07;23.23;;;9.77;;
20697;SDS011;10508;50.956;4.640;2022-12-13T02:35:51;26.48;;;8.27;;
20697;SDS011;10508;50.956;4.640;2022-12-13T02:39:31;27.25;;;10.45;;
20697;SDS011;10508;50.956;4.640;2022-12-13T02:46:38;24.02;;;8.77;;
20697;SDS011;10508;50.956;4.640;2022-12-13T02:49:09;24.83;;;9.07;;
20697;SDS011;10508;50.956;4.640;2022-12-13T02:51:36;30.90;;;9.60;;
20697;SDS011;10508;50.956;4.640;2022-12-13T02:54:03;31.88;;;10.55;;
20697;SDS011;10508;50.956;4.640;2022-12-13T02:56:30;23.08;;;9.38;;
20697;SDS011;10508;50.956;4.640;2022-12-13T02:58:56;27.10;;;10.18;;
20697;SDS011;10508;50.956;4.640;2022-12-13T03:04:20;19.35;;;8.23;;
20697;SDS011;10508;50.956;4.640;2022-12-13T03:12:36;23.20;;;9.07;;
20697;SDS011;10508;50.956;4.640;2022-12-13T03:18:16;26.23;;;9.10;;
20697;SDS011;10508;50.956;4.640;2022-12-13T03:20:45;26.98;;;8.68;;
20697;SDS011;10508;50.956;4.640;2022-12-13T03:23:12;29.20;;;9.65;;
20697;SDS011;10508;50.956;4.640;2022-12-13T03:25:39;24.60;;;8.38;;
20697;SDS011;10508;50.956;4.640;2022-12-13T03:28:04;28.55;;;8.07;;
20697;SDS011;10508;50.956;4.640;2022-12-13T03:30:30;20.38;;;8.73;;
20697;SDS011;10508;50.956;4.640;2022-12-13T03:32:57;23.90;;;9.02;;
20697;SDS011;10508;50.956;4.640;2022-12-13T03:35:23;27.25;;;9.40;;
20697;SDS011;10508;50.956;4.640;2022-12-13T03:37:49;22.65;;;7.32;;
20697;SDS011;10508;50.956;4.640;2022-12-13T03:40:16;19.65;;;8.18;;
20697;SDS011;10508;50.956;4.640;2022-12-13T03:42:42;21.20;;;9.35;;
20697;SDS011;10508;50.956;4.640;2022-12-13T03:45:08;21.73;;;8.32;;
20697;SDS011;10508;50.956;4.640;2022-12-13T03:47:34;20.08;;;7.90;;
20697;SDS011;10508;50.956;4.640;2022-12-13T03:49:59;23.33;;;8.05;;
20697;SDS011;10508;50.956;4.640;2022-12-13T03:52:25;20.33;;;7.65;;
20697;SDS011;10508;50.956;4.640;2022-12-13T03:54:51;24.90;;;8.10;;
20697;SDS011;10508;50.956;4.640;2022-12-13T03:57:16;20.13;;;7.60;;
20697;SDS011;10508;50.956;4.640;2022-12-13T03:59:42;21.25;;;6.75;;
20697;SDS011;10508;50.956;4.640;2022-12-13T04:02:07;23.92;;;8.32;;
20697;SDS011;10508;50.956;4.640;2022-12-13T04:04:33;17.65;;;7.63;;
20697;SDS011;10508;50.956;4.640;2022-12-13T04:06:59;24.05;;;8.15;;
20697;SDS011;10508;50.956;4.640;2022-12-13T04:09:24;27.08;;;8.35;;
20697;SDS011;10508;50.956;4.640;2022-12-13T04:11:50;24.40;;;7.93;;
20697;SDS011;10508;50.956;4.640;2022-12-13T04:14:34;20.30;;;6.45;;
20697;SDS011;10508;50.956;4.640;2022-12-13T04:16:59;23.55;;;8.18;;
20697;SDS011;10508;50.956;4.640;2022-12-13T04:19:25;19.73;;;7.88;;
20697;SDS011;10508;50.956;4.640;2022-12-13T04:21:51;15.38;;;6.43;;
20697;SDS011;10508;50.956;4.640;2022-12-13T04:24:18;17.25;;;6.68;;
20697;SDS011;10508;50.956;4.640;2022-12-13T04:26:44;20.75;;;7.30;;
20697;SDS011;10508;50.956;4.640;2022-12-13T04:29:09;17.23;;;7.15;;
20697;SDS011;10508;50.956;4.640;2022-12-13T04:31:35;19.73;;;7.35;;
20697;SDS011;10508;50.956;4.640;2022-12-13T04:34:01;18.20;;;7.32;;
20697;SDS011;10508;50.956;4.640;2022-12-13T04:36:26;13.48;;;6.40;;
20697;SDS011;10508;50.956;4.640;2022-12-13T04:38:52;15.80;;;5.80;;
20697;SDS011;10508;50.956;4.640;2022-12-13T04:41:18;17.75;;;6.75;;
20697;SDS011;10508;50.956;4.640;2022-12-13T04:43:44;25.80;;;8.07;;
20697;SDS011;10508;50.956;4.640;2022-12-13T04:46:16;17.67;;;6.90;;
20697;SDS011;10508;50.956;4.640;2022-12-13T04:48:45;25.23;;;8.07;;
20697;SDS011;10508;50.956;4.640;2022-12-13T04:51:11;20.58;;;8.15;;
20697;SDS011;10508;50.956;4.640;2022-12-13T04:53:40;17.15;;;5.88;;
20697;SDS011;10508;50.956;4.640;2022-12-13T04:56:06;20.75;;;6.15;;
20697;SDS011;10508;50.956;4.640;2022-12-13T04:58:32;14.35;;;6.53;;
20697;SDS011;10508;50.956;4.640;2022-12-13T05:00:58;26.40;;;6.90;;
20697;SDS011;10508;50.956;4.640;2022-12-13T05:03:24;22.83;;;6.97;;
20697;SDS011;10508;50.956;4.640;2022-12-13T05:05:50;17.52;;;5.85;;
20697;SDS011;10508;50.956;4.640;2022-12-13T05:08:15;23.38;;;6.25;;
20697;SDS011;10508;50.956;4.640;2022-12-13T05:10:41;24.17;;;7.63;;
20697;SDS011;10508;50.956;4.640;2022-12-13T05:13:07;22.92;;;6.45;;
20697;SDS011;10508;50.956;4.640;2022-12-13T05:15:33;21.02;;;7.00;;
20697;SDS011;10508;50.956;4.640;2022-12-13T05:17:59;20.10;;;5.82;;
20697;SDS011;10508;50.956;4.640;2022-12-13T05:20:29;19.60;;;6.43;;
20697;SDS011;10508;50.956;4.640;2022-12-13T05:22:55;14.48;;;5.70;;
20697;SDS011;10508;50.956;4.640;2022-12-13T05:25:22;17.02;;;5.97;;
20697;SDS011;10508;50.956;4.640;2022-12-13T05:27:51;15.80;;;6.00;;
20697;SDS011;10508;50.956;4.640;2022-12-13T05:30:17;20.02;;;6.93;;
20697;SDS011;10508;50.956;4.640;2022-12-13T05:32:43;25.75;;;7.65;;
20697;SDS011;10508;50.956;4.640;2022-12-13T05:35:09;23.27;;;6.57;;
20697;SDS011;10508;50.956;4.640;2022-12-13T05:37:35;21.95;;;7.05;;
20697;SDS011;10508;50.956;4.640;2022-12-13T05:40:01;18.38;;;7.45;;
20697;SDS011;10508;50.956;4.640;2022-12-13T05:42:27;18.33;;;7.68;;
20697;SDS011;10508;50.956;4.640;2022-12-13T05:44:53;27.70;;;7.95;;
20697;SDS011;10508;50.956;4.640;2022-12-13T05:47:18;22.60;;;7.63;;
20697;SDS011;10508;50.956;4.640;2022-12-13T05:49:44;20.23;;;7.95;;
20697;SDS011;10508;50.956;4.640;2022-12-13T05:52:16;25.70;;;8.13;;
20697;SDS011;10508;50.956;4.640;2022-12-13T05:54:43;16.63;;;6.93;;
20697;SDS011;10508;50.956;4.640;2022-12-13T05:57:08;16.38;;;6.45;;
20697;SDS011;10508;50.956;4.640;2022-12-13T05:59:34;16.80;;;7.47;;
20697;SDS011;10508;50.956;4.640;2022-12-13T06:02:00;16.70;;;7.45;;
20697;SDS011;10508;50.956;4.640;2022-12-13T06:04:26;16.92;;;6.40;;
20697;SDS011;10508;50.956;4.640;2022-12-13T06:06:51;25.75;;;7.50;;
20697;SDS011;10508;50.956;4.640;2022-12-13T06:09:17;24.23;;;7.22;;
20697;SDS011;10508;50.956;4.640;2022-12-13T06:11:43;14.88;;;5.88;;
20697;SDS011;10508;50.956;4.640;2022-12-13T06:14:09;15.52;;;5.85;;
20697;SDS011;10508;50.956;4.640;2022-12-13T06:16:35;14.88;;;6.93;;
20697;SDS011;10508;50.956;4.640;2022-12-13T06:19:00;21.13;;;7.15;;
20697;SDS011;10508;50.956;4.640;2022-12-13T06:21:26;16.80;;;7.25;;
20697;SDS011;10508;50.956;4.640;2022-12-13T06:23:52;19.95;;;7.03;;
20697;SDS011;10508;50.956;4.640;2022-12-13T06:26:18;18.63;;;7.68;;
20697;SDS011;10508;50.956;4.640;2022-12-13T06:28:44;20.98;;;8.10;;
20697;SDS011;10508;50.956;4.640;2022-12-13T06:31:09;14.93;;;7.38;;
20697;SDS011;10508;50.956;4.640;2022-12-13T06:33:35;14.68;;;7.07;;
20697;SDS011;10508;50.956;4.640;2022-12-13T06:36:03;22.25;;;8.57;;
20697;SDS011;10508;50.956;4.640;2022-12-13T06:38:29;19.92;;;6.18;;
20697;SDS011;10508;50.956;4.640;2022-12-13T06:41:04;17.70;;;7.03;;
20697;SDS011;10508;50.956;4.640;2022-12-13T06:43:31;21.08;;;7.60;;
20697;SDS011;10508;50.956;4.640;2022-12-13T06:45:57;20.35;;;7.13;;
20697;SDS011;10508;50.956;4.640;2022-12-13T06:48:23;19.10;;;6.78;;
20697;SDS011;10508;50.956;4.640;2022-12-13T06:50:48;19.33;;;7.05;;
20697;SDS011;10508;50.956;4.640;2022-12-13T06:53:14;18.27;;;7.47;;
20697;SDS011;10508;50.956;4.640;2022-12-13T06:55:39;29.08;;;7.95;;
20697;SDS011;10508;50.956;4.640;2022-12-13T06:58:05;30.38;;;8.02;;
20697;SDS011;10508;50.956;4.640;2022-12-13T07:00:31;27.05;;;9.20;;
20697;SDS011;10508;50.956;4.640;2022-12-13T07:02:56;16.17;;;7.30;;
20697;SDS011;10508;50.956;4.640;2022-12-13T07:05:22;23.52;;;8.00;;
20697;SDS011;10508;50.956;4.640;2022-12-13T07:07:49;19.02;;;7.95;;
20697;SDS011;10508;50.956;4.640;2022-12-13T07:10:14;21.65;;;7.80;;
20697;SDS011;10508;50.956;4.640;2022-12-13T07:12:40;22.05;;;8.00;;
20697;SDS011;10508;50.956;4.640;2022-12-13T07:15:06;26.38;;;8.48;;
20697;SDS011;10508;50.956;4.640;2022-12-13T07:17:32;20.52;;;7.05;;
20697;SDS011;10508;50.956;4.640;2022-12-13T07:19:57;18.47;;;7.13;;
20697;SDS011;10508;50.956;4.640;2022-12-13T07:22:23;20.40;;;6.40;;
20697;SDS011;10508;50.956;4.640;2022-12-13T07:24:48;31.50;;;6.53;;
20697;SDS011;10508;50.956;4.640;2022-12-13T07:27:14;14.35;;;6.57;;
20697;SDS011;10508;50.956;4.640;2022-12-13T07:29:39;21.52;;;7.40;;
20697;SDS011;10508;50.956;4.640;2022-12-13T07:32:05;17.23;;;6.93;;
20697;SDS011;10508;50.956;4.640;2022-12-13T07:34:31;14.43;;;6.38;;
20697;SDS011;10508;50.956;4.640;2022-12-13T07:36:56;14.30;;;6.18;;
20697;SDS011;10508;50.956;4.640;2022-12-13T07:39:22;16.05;;;6.10;;
20697;SDS011;10508;50.956;4.640;2022-12-13T07:41:55;24.02;;;7.07;;
20697;SDS011;10508;50.956;4.640;2022-12-13T07:44:21;17.25;;;5.10;;
20697;SDS011;10508;50.956;4.640;2022-12-13T07:46:47;13.43;;;6.13;;
20697;SDS011;10508;50.956;4.640;2022-12-13T07:49:12;12.35;;;4.97;;
20697;SDS011;10508;50.956;4.640;2022-12-13T07:51:38;15.98;;;6.05;;
20697;SDS011;10508;50.956;4.640;2022-12-13T07:54:04;14.00;;;5.95;;
20697;SDS011;10508;50.956;4.640;2022-12-13T07:56:32;21.13;;;7.18;;
20697;SDS011;10508;50.956;4.640;2022-12-13T07:58:58;15.13;;;6.72;;
20697;SDS011;10508;50.956;4.640;2022-12-13T08:01:23;21.25;;;7.45;;
20697;SDS011;10508;50.956;4.640;2022-12-13T08:03:49;19.83;;;7.93;;
20697;SDS011;10508;50.956;4.640;2022-12-13T08:06:15;19.90;;;7.40;;
20697;SDS011;10508;50.956;4.640;2022-12-13T08:08:43;20.07;;;5.93;;
20697;SDS011;10508;50.956;4.640;2022-12-13T08:11:09;24.73;;;8.02;;
20697;SDS011;10508;50.956;4.640;2022-12-13T08:13:36;22.90;;;7.07;;
20697;SDS011;10508;50.956;4.640;2022-12-13T08:16:04;21.23;;;8.83;;
20697;SDS011;10508;50.956;4.640;2022-12-13T08:18:31;18.58;;;8.38;;
20697;SDS011;10508;50.956;4.640;2022-12-13T08:21:01;33.42;;;10.05;;
20697;SDS011;10508;50.956;4.640;2022-12-13T08:23:29;26.58;;;11.93;;
20697;SDS011;10508;50.956;4.640;2022-12-13T08:25:57;36.45;;;12.05;;
20697;SDS011;10508;50.956;4.640;2022-12-13T08:28:23;24.25;;;8.85;;
20697;SDS011;10508;50.956;4.640;2022-12-13T08:30:50;33.22;;;11.38;;
20697;SDS011;10508;50.956;4.640;2022-12-13T08:33:16;27.95;;;10.80;;
20697;SDS011;10508;50.956;4.640;2022-12-13T08:35:42;32.20;;;9.98;;
20697;SDS011;10508;50.956;4.640;2022-12-13T08:38:09;25.83;;;8.93;;
20697;SDS011;10508;50.956;4.640;2022-12-13T08:40:35;27.30;;;8.75;;
20697;SDS011;10508;50.956;4.640;2022-12-13T08:43:01;30.98;;;11.90;;
20697;SDS011;10508;50.956;4.640;2022-12-13T08:45:28;29.75;;;10.50;;
20697;SDS011;10508;50.956;4.640;2022-12-13T08:47:56;30.00;;;10.75;;
20697;SDS011;10508;50.956;4.640;2022-12-13T08:50:22;29.20;;;10.35;;
20697;SDS011;10508;50.956;4.640;2022-12-13T08:52:48;26.65;;;10.55;;
20697;SDS011;10508;50.956;4.640;2022-12-13T08:55:15;24.23;;;9.32;;
20697;SDS011;10508;50.956;4.640;2022-12-13T08:57:41;26.38;;;9.23;;
20697;SDS011;10508;50.956;4.640;2022-12-13T09:00:09;19.67;;;8.05;;
20697;SDS011;10508;50.956;4.640;2022-12-13T09:02:37;25.20;;;8.20;;
20697;SDS011;10508;50.956;4.640;2022-12-13T09:05:03;24.52;;;9.15;;
20697;SDS011;10508;50.956;4.640;2022-12-13T09:07:29;24.27;;;9.75;;
20697;SDS011;10508;50.956;4.640;2022-12-13T09:09:54;29.35;;;10.35;;
20697;SDS011;10508;50.956;4.640;2022-12-13T09:12:20;30.75;;;11.98;;
20697;SDS011;10508;50.956;4.640;2022-12-13T09:14:45;25.20;;;9.43;;
20697;SDS011;10508;50.956;4.640;2022-12-13T09:17:12;24.60;;;9.57;;
20697;SDS011;10508;50.956;4.640;2022-12-13T09:19:39;23.33;;;8.85;;
20697;SDS011;10508;50.956;4.640;2022-12-13T09:22:05;21.70;;;8.68;;
20697;SDS011;10508;50.956;4.640;2022-12-13T09:24:30;31.55;;;8.27;;
20697;SDS011;10508;50.956;4.640;2022-12-13T09:26:56;26.77;;;9.63;;
20697;SDS011;10508;50.956;4.640;2022-12-13T09:29:22;30.00;;;8.88;;
20697;SDS011;10508;50.956;4.640;2022-12-13T09:31:48;25.80;;;8.90;;
20697;SDS011;10508;50.956;4.640;2022-12-13T09:34:13;25.23;;;8.32;;
20697;SDS011;10508;50.956;4.640;2022-12-13T09:36:39;27.45;;;8.93;;
20697;SDS011;10508;50.956;4.640;2022-12-13T09:39:06;18.23;;;7.35;;
20697;SDS011;10508;50.956;4.640;2022-12-13T09:41:36;21.50;;;9.10;;
20697;SDS011;10508;50.956;4.640;2022-12-13T09:44:09;24.10;;;9.80;;
20697;SDS011;10508;50.956;4.640;2022-12-13T09:46:47;19.83;;;8.52;;
20697;SDS011;10508;50.956;4.640;2022-12-13T09:49:21;25.33;;;9.38;;
20697;SDS011;10508;50.956;4.640;2022-12-13T09:52:02;26.75;;;9.70;;
20697;SDS011;10508;50.956;4.640;2022-12-13T09:54:30;28.08;;;10.40;;
20697;SDS011;10508;50.956;4.640;2022-12-13T09:56:57;29.83;;;9.45;;
20697;SDS011;10508;50.956;4.640;2022-12-13T09:59:30;20.10;;;8.32;;
20697;SDS011;10508;50.956;4.640;2022-12-13T10:02:06;29.02;;;9.48;;
20697;SDS011;10508;50.956;4.640;2022-12-13T10:04:42;19.27;;;7.47;;
20697;SDS011;10508;50.956;4.640;2022-12-13T10:07:18;21.80;;;7.90;;
20697;SDS011;10508;50.956;4.640;2022-12-13T10:09:45;24.38;;;8.52;;
20697;SDS011;10508;50.956;4.640;2022-12-13T10:12:12;22.52;;;8.43;;
20697;SDS011;10508;50.956;4.640;2022-12-13T10:14:48;20.75;;;9.23;;
20697;SDS011;10508;50.956;4.640;2022-12-13T10:17:19;24.17;;;9.80;;
20697;SDS011;10508;50.956;4.640;2022-12-13T10:19:49;27.00;;;9.82;;
20697;SDS011;10508;50.956;4.640;2022-12-13T10:22:18;24.08;;;9.38;;
20697;SDS011;10508;50.956;4.640;2022-12-13T10:25:00;20.75;;;8.93;;
20697;SDS011;10508;50.956;4.640;2022-12-13T10:27:43;19.88;;;8.13;;
20697;SDS011;10508;50.956;4.640;2022-12-13T10:35:25;27.33;;;8.90;;
20697;SDS011;10508;50.956;4.640;2022-12-13T10:37:52;30.30;;;8.75;;
20697;SDS011;10508;50.956;4.640;2022-12-13T10:40:24;28.02;;;9.45;;
20697;SDS011;10508;50.956;4.640;2022-12-13T10:48:26;26.73;;;9.88;;
20697;SDS011;10508;50.956;4.640;2022-12-13T10:51:00;22.83;;;8.65;;
20697;SDS011;10508;50.956;4.640;2022-12-13T10:56:14;30.23;;;10.35;;
20697;SDS011;10508;50.956;4.640;2022-12-13T10:58:45;23.95;;;10.23;;
20697;SDS011;10508;50.956;4.640;2022-12-13T11:03:55;23.08;;;9.48;;
20697;SDS011;10508;50.956;4.640;2022-12-13T11:06:22;22.42;;;8.50;;
20697;SDS011;10508;50.956;4.640;2022-12-13T11:08:49;22.05;;;8.65;;
20697;SDS011;10508;50.956;4.640;2022-12-13T11:11:16;27.35;;;9.40;;
20697;SDS011;10508;50.956;4.640;2022-12-13T11:13:51;25.83;;;8.93;;
20697;SDS011;10508;50.956;4.640;2022-12-13T11:19:06;19.00;;;8.63;;
20697;SDS011;10508;50.956;4.640;2022-12-13T11:21:45;20.50;;;7.90;;
20697;SDS011;10508;50.956;4.640;2022-12-13T11:24:17;24.35;;;9.43;;
20697;SDS011;10508;50.956;4.640;2022-12-13T11:26:56;24.83;;;9.80;;
20697;SDS011;10508;50.956;4.640;2022-12-13T11:29:38;28.90;;;10.60;;
20697;SDS011;10508;50.956;4.640;2022-12-13T11:32:38;27.95;;;11.35;;
20697;SDS011;10508;50.956;4.640;2022-12-13T11:36:04;28.70;;;9.25;;
20697;SDS011;10508;50.956;4.640;2022-12-13T11:41:13;21.00;;;7.55;;
20697;SDS011;10508;50.956;4.640;2022-12-13T11:43:47;18.55;;;8.00;;
20697;SDS011;10508;50.956;4.640;2022-12-13T11:46:45;23.83;;;8.13;;
20697;SDS011;10508;50.956;4.640;2022-12-13T11:49:34;19.90;;;8.15;;
20697;SDS011;10508;50.956;4.640;2022-12-13T11:52:11;22.75;;;8.95;;
20697;SDS011;10508;50.956;4.640;2022-12-13T11:57:10;27.10;;;8.98;;
20697;SDS011;10508;50.956;4.640;2022-12-13T11:59:47;24.75;;;8.50;;
20697;SDS011;10508;50.956;4.640;2022-12-13T12:02:36;23.67;;;7.97;;
20697;SDS011;10508;50.956;4.640;2022-12-13T12:05:09;24.35;;;8.55;;
20697;SDS011;10508;50.956;4.640;2022-12-13T12:07:52;24.00;;;8.10;;
20697;SDS011;10508;50.956;4.640;2022-12-13T12:10:26;23.27;;;8.18;;
20697;SDS011;10508;50.956;4.640;2022-12-13T12:13:03;28.15;;;9.23;;
20697;SDS011;10508;50.956;4.640;2022-12-13T12:15:31;23.45;;;8.82;;
20697;SDS011;10508;50.956;4.640;2022-12-13T12:18:02;18.92;;;8.73;;
20697;SDS011;10508;50.956;4.640;2022-12-13T12:21:13;24.33;;;9.63;;
20697;SDS011;10508;50.956;4.640;2022-12-13T12:26:19;21.15;;;7.68;;
20697;SDS011;10508;50.956;4.640;2022-12-13T12:31:45;23.65;;;7.93;;
20697;SDS011;10508;50.956;4.640;2022-12-13T12:45:35;21.15;;;7.45;;
20697;SDS011;10508;50.956;4.640;2022-12-13T12:51:09;19.13;;;7.22;;
20697;SDS011;10508;50.956;4.640;2022-12-13T12:59:24;22.02;;;6.75;;
20697;SDS011;10508;50.956;4.640;2022-12-13T13:04:57;20.77;;;7.55;;
20697;SDS011;10508;50.956;4.640;2022-12-13T13:07:35;21.30;;;8.00;;
20697;SDS011;10508;50.956;4.640;2022-12-13T13:10:06;18.02;;;7.55;;
20697;SDS011;10508;50.956;4.640;2022-12-13T13:12:35;20.92;;;8.85;;
20697;SDS011;10508;50.956;4.640;2022-12-13T13:18:06;25.30;;;8.73;;
20697;SDS011;10508;50.956;4.640;2022-12-13T13:21:24;17.58;;;6.72;;
20697;SDS011;10508;50.956;4.640;2022-12-13T13:26:28;24.48;;;7.40;;
20697;SDS011;10508;50.956;4.640;2022-12-13T13:29:19;21.60;;;8.40;;
20697;SDS011;10508;50.956;4.640;2022-12-13T13:34:41;27.00;;;9.00;;
20697;SDS011;10508;50.956;4.640;2022-12-13T13:45:27;23.10;;;9.05;;
20697;SDS011;10508;50.956;4.640;2022-12-13T13:47:56;24.70;;;8.57;;
20697;SDS011;10508;50.956;4.640;2022-12-13T14:02:27;20.83;;;8.43;;
20697;SDS011;10508;50.956;4.640;2022-12-13T14:07:47;30.05;;;9.52;;
20697;SDS011;10508;50.956;4.640;2022-12-13T14:10:48;26.90;;;8.50;;
20697;SDS011;10508;50.956;4.640;2022-12-13T14:13:25;29.42;;;10.10;;
20697;SDS011;10508;50.956;4.640;2022-12-13T14:26:58;27.95;;;10.30;;
20697;SDS011;10508;50.956;4.640;2022-12-13T14:29:36;35.47;;;12.05;;
20697;SDS011;10508;50.956;4.640;2022-12-13T14:32:08;27.00;;;10.27;;
20697;SDS011;10508;50.956;4.640;2022-12-13T14:34:42;30.70;;;12.90;;
20697;SDS011;10508;50.956;4.640;2022-12-13T14:39:51;30.90;;;11.93;;
20697;SDS011;10508;50.956;4.640;2022-12-13T14:42:35;42.70;;;13.95;;
20697;SDS011;10508;50.956;4.640;2022-12-13T14:47:52;42.28;;;15.07;;
20697;SDS011;10508;50.956;4.640;2022-12-13T14:50:20;42.65;;;13.95;;
20697;SDS011;10508;50.956;4.640;2022-12-13T14:52:48;47.40;;;15.18;;
20697;SDS011;10508;50.956;4.640;2022-12-13T14:55:27;40.25;;;15.68;;
20697;SDS011;10508;50.956;4.640;2022-12-13T14:58:00;43.80;;;15.93;;
20697;SDS011;10508;50.956;4.640;2022-12-13T15:02:59;49.88;;;16.95;;
20697;SDS011;10508;50.956;4.640;2022-12-13T15:05:28;55.67;;;19.25;;
20697;SDS011;10508;50.956;4.640;2022-12-13T15:07:58;43.80;;;15.10;;
20697;SDS011;10508;50.956;4.640;2022-12-13T15:10:31;39.90;;;14.50;;
20697;SDS011;10508;50.956;4.640;2022-12-13T15:13:02;48.72;;;14.95;;
20697;SDS011;10508;50.956;4.640;2022-12-13T15:15:29;44.78;;;14.25;;
20697;SDS011;10508;50.956;4.640;2022-12-13T15:20:49;40.10;;;13.70;;
20697;SDS011;10508;50.956;4.640;2022-12-13T15:25:46;47.47;;;16.38;;
20697;SDS011;10508;50.956;4.640;2022-12-13T15:28:23;38.42;;;15.05;;
20697;SDS011;10508;50.956;4.640;2022-12-13T15:30:52;36.90;;;13.73;;
20697;SDS011;10508;50.956;4.640;2022-12-13T15:33:23;39.17;;;14.02;;
20697;SDS011;10508;50.956;4.640;2022-12-13T15:41:26;42.80;;;15.63;;
20697;SDS011;10508;50.956;4.640;2022-12-13T15:44:22;35.17;;;14.73;;
20697;SDS011;10508;50.956;4.640;2022-12-13T15:46:53;37.58;;;13.85;;
20697;SDS011;10508;50.956;4.640;2022-12-13T15:49:36;60.30;;;17.23;;
20697;SDS011;10508;50.956;4.640;2022-12-13T15:57:32;39.85;;;15.52;;
20697;SDS011;10508;50.956;4.640;2022-12-13T16:00:19;45.10;;;15.38;;
20697;SDS011;10508;50.956;4.640;2022-12-13T16:02:54;37.55;;;14.82;;
20697;SDS011;10508;50.956;4.640;2022-12-13T16:05:30;42.28;;;17.30;;
20697;SDS011;10508;50.956;4.640;2022-12-13T16:08:02;40.55;;;14.88;;
20697;SDS011;10508;50.956;4.640;2022-12-13T16:10:30;36.60;;;14.23;;
20697;SDS011;10508;50.956;4.640;2022-12-13T16:13:05;39.22;;;13.60;;
20697;SDS011;10508;50.956;4.640;2022-12-13T16:15:32;41.22;;;12.77;;
20697;SDS011;10508;50.956;4.640;2022-12-13T16:18:23;40.45;;;12.95;;
20697;SDS011;10508;50.956;4.640;2022-12-13T16:20:53;37.38;;;14.40;;
20697;SDS011;10508;50.956;4.640;2022-12-13T16:23:19;42.05;;;14.30;;
20697;SDS011;10508;50.956;4.640;2022-12-13T16:25:44;41.35;;;14.85;;
20697;SDS011;10508;50.956;4.640;2022-12-13T16:28:10;39.80;;;14.68;;
20697;SDS011;10508;50.956;4.640;2022-12-13T16:33:23;28.33;;;11.82;;
20697;SDS011;10508;50.956;4.640;2022-12-13T16:35:49;29.00;;;11.40;;
20697;SDS011;10508;50.956;4.640;2022-12-13T16:38:16;37.20;;;12.30;;
20697;SDS011;10508;50.956;4.640;2022-12-13T16:40:42;30.92;;;11.52;;
20697;SDS011;10508;50.956;4.640;2022-12-13T16:43:16;37.55;;;12.07;;
20697;SDS011;10508;50.956;4.640;2022-12-13T16:45:45;35.30;;;11.93;;
20697;SDS011;10508;50.956;4.640;2022-12-13T16:48:13;33.88;;;12.00;;
20697;SDS011;10508;50.956;4.640;2022-12-13T16:50:43;32.30;;;11.75;;
20697;SDS011;10508;50.956;4.640;2022-12-13T16:53:10;34.67;;;12.38;;
20697;SDS011;10508;50.956;4.640;2022-12-13T16:55:36;28.67;;;11.30;;
20697;SDS011;10508;50.956;4.640;2022-12-13T16:58:20;32.08;;;10.73;;
20697;SDS011;10508;50.956;4.640;2022-12-13T17:00:47;32.25;;;11.70;;
20697;SDS011;10508;50.956;4.640;2022-12-13T17:03:13;37.10;;;11.43;;
20697;SDS011;10508;50.956;4.640;2022-12-13T17:05:39;34.50;;;12.35;;
20697;SDS011;10508;50.956;4.640;2022-12-13T17:08:11;36.88;;;14.20;;
20697;SDS011;10508;50.956;4.640;2022-12-13T17:10:38;34.83;;;13.75;;
20697;SDS011;10508;50.956;4.640;2022-12-13T17:13:04;47.10;;;16.55;;
20697;SDS011;10508;50.956;4.640;2022-12-13T17:15:30;35.00;;;13.90;;